Roanoke — WDD9656 — position and weather

sailwx.info

Track history (hours):
 
Tides and Currents Weather Stations Pressure Air Temp Water Temp Dewpoint Dewpoint Depression Visibility Wind Speed Wind Dir Waves Ship Positions

Roanoke

Owner: Vane Line Bunkering, Baltimore, MD. More information available from US FCC via Universal Licensing System and Coast Guard Vessel Documentation Center.

Last reported at 2015-Jul-31 10:32 UTC. Time now 2015-Jul-31 11:25 UTC.
Position N 39°15' W 076°34'.

Length 32 m; draft 13 m.

Type: Towing. MMSI: 367314510.

Date/timePositionNaut miles runAvg speedWind from/ knotsBaromVisibWave heightAir tempDewpointWater temp
2015-Jul-31 10:32N 39°15' W 076°34'4 3.6
2015-Jul-31 09:33N 39°12' W 076°31'7 7.4
2015-Jul-31 08:33N 39°13' W 076°21'8 8.3
2015-Jul-31 07:33N 39°19' W 076°13'9 8.9
2015-Jul-31 06:33N 39°24' W 076°04'10 9.9
2015-Jul-31 05:33N 39°30' W 075°54'9 9.0
2015-Jul-31 04:33N 39°33' W 075°43'8 7.8
2015-Jul-31 03:33N 39°32' W 075°33'9 9.2
2015-Jul-31 02:33N 39°23' W 075°29'1110.8
2015-Jul-31 01:33N 39°15' W 075°20'5 4.7
2015-Jul-31 00:33N 39°11' W 075°24'0 0.0
2015-Jul-30 23:33N 39°11' W 075°24'0 0.0
2015-Jul-30 22:31N 39°11' W 075°24'0 0.0
2015-Jul-30 21:32N 39°11' W 075°24'0 0.0
2015-Jul-30 20:32N 39°11' W 075°24'0 0.0
2015-Jul-30 19:33N 39°11' W 075°24'0 0.0
2015-Jul-30 18:28N 39°11' W 075°24'0 0.0
2015-Jul-30 17:31N 39°11' W 075°24'0 0.0
2015-Jul-30 16:29N 39°11' W 075°24'0 0.0
2015-Jul-30 15:30N 39°11' W 075°24'0 0.0
2015-Jul-30 14:30N 39°11' W 075°24'0 0.0
2015-Jul-30 13:31N 39°11' W 075°24'1 0.7
2015-Jul-30 12:33N 39°11' W 075°23'5 4.9
2015-Jul-30 11:33N 39°16' W 075°21'6 5.9
2015-Jul-30 10:33N 39°20' W 075°26'6 5.8
2015-Jul-30 09:33N 39°25' W 075°31'6 5.9
2015-Jul-30 08:33N 39°30' W 075°33'4 4.0
2015-Jul-30 07:33N 39°33' W 075°37'5 4.8
2015-Jul-30 06:33N 39°33' W 075°43'5 4.9
2015-Jul-30 05:33N 39°32' W 075°49'5 4.6
2015-Jul-30 04:33N 39°30' W 075°55'5 5.0
2015-Jul-30 03:33N 39°27' W 075°60'5 5.5
2015-Jul-30 02:33N 39°23' W 076°05'6 5.8
2015-Jul-30 01:33N 39°20' W 076°11'6 5.6
2015-Jul-30 00:28N 39°16' W 076°17'5 6.0
2015-Jul-29 23:33N 39°13' W 076°22'6 5.6
2015-Jul-29 22:33N 39°12' W 076°29'5 5.0
2015-Jul-29 21:33N 39°15' W 076°34'0 0.0
2015-Jul-29 20:31N 39°15' W 076°34'0 0.0
2015-Jul-29 19:31N 39°15' W 076°34'0 0.0
2015-Jul-29 18:12N 39°15' W 076°34'0 0.0
2015-Jul-29 17:12N 39°15' W 076°34'0 0.0
2015-Jul-29 16:33N 39°15' W 076°34'0 0.0
2015-Jul-29 15:25N 39°15' W 076°34'0 0.0
2015-Jul-29 14:31N 39°15' W 076°34'0 0.0
2015-Jul-29 12:27N 39°15' W 076°34'0 0.4
2015-Jul-29 11:33N 39°15' W 076°34'7 6.3
2015-Jul-29 10:25N 39°11' W 076°27'5 5.7
2015-Jul-29 09:33N 39°13' W 076°21'5 4.9
2015-Jul-29 08:31N 39°16' W 076°16'5 4.9
2015-Jul-29 07:33N 39°20' W 076°12'6 6.0
2015-Jul-29 06:33N 39°23' W 076°05'7 6.7
2015-Jul-29 05:33N 39°28' W 075°58'6 6.4
2015-Jul-29 04:33N 39°23' W 076°05'8 7.5
2015-Jul-29 03:33N 39°19' W 076°13'7 7.2
2015-Jul-29 02:32N 39°14' W 076°20'7 7.4
2015-Jul-29 01:33N 39°11' W 076°28'5 4.9
2015-Jul-29 00:32N 39°14' W 076°34'0 0.0
2015-Jul-28 23:33N 39°14' W 076°34'0 0.0
2015-Jul-28 22:31N 39°14' W 076°34'1 1.0
2015-Jul-28 21:33N 39°14' W 076°34'1 0.8
2015-Jul-28 20:33N 39°15' W 076°34'2 1.9
2015-Jul-28 19:33N 39°16' W 076°36'0 0.0
2015-Jul-28 18:31N 39°16' W 076°36'0 0.0
2015-Jul-28 17:30N 39°16' W 076°36'0 0.0
2015-Jul-28 16:33N 39°16' W 076°36'0 0.0
2015-Jul-28 15:31N 39°16' W 076°36'0 0.0
2015-Jul-28 14:31N 39°16' W 076°36'0 0.0
2015-Jul-28 13:32N 39°16' W 076°36'0 0.0
2015-Jul-28 12:33N 39°16' W 076°36'0 0.0
2015-Jul-28 11:27N 39°16' W 076°36'0 0.0
2015-Jul-28 10:28N 39°16' W 076°36'0 0.0
2015-Jul-28 09:29N 39°16' W 076°36'0 0.0
2015-Jul-28 08:29N 39°16' W 076°36'0 0.0
2015-Jul-28 07:30N 39°16' W 076°36'0 0.0
2015-Jul-28 06:31N 39°16' W 076°36'0 0.0
2015-Jul-28 05:31N 39°16' W 076°36'0 0.0
2015-Jul-28 04:32N 39°16' W 076°36'0 0.0
2015-Jul-28 03:33N 39°16' W 076°36'0 0.0
2015-Jul-28 02:33N 39°16' W 076°36'0 0.0
2015-Jul-28 01:28N 39°16' W 076°36'0 0.0
2015-Jul-28 00:29N 39°16' W 076°36'0 0.0
2015-Jul-27 23:23N 39°16' W 076°36'0 0.0
2015-Jul-27 20:31N 39°16' W 076°36'0 0.0
2015-Jul-27 19:26N 39°16' W 076°36'0 0.0
2015-Jul-27 15:29N 39°16' W 076°36'0 0.0
2015-Jul-27 14:12N 39°16' W 076°36'0 0.0
2015-Jul-27 11:25N 39°16' W 076°36'0 0.0
2015-Jul-27 10:26N 39°16' W 076°36'0 0.0
2015-Jul-27 01:32N 39°16' W 076°36'0 0.0
2015-Jul-26 16:29N 39°16' W 076°36'0 0.0
2015-Jul-26 15:30N 39°16' W 076°36'0 0.0
2015-Jul-26 14:31N 39°16' W 076°36'0 0.0
2015-Jul-26 13:28N 39°16' W 076°36'0 0.0
2015-Jul-26 12:29N 39°16' W 076°36'0 0.0
2015-Jul-26 11:30N 39°16' W 076°36'0 0.0
2015-Jul-26 10:12N 39°16' W 076°36'0 0.0
2015-Jul-26 09:31N 39°16' W 076°36'0 0.0
2015-Jul-26 08:20N 39°16' W 076°36'0 0.0
2015-Jul-26 07:32N 39°16' W 076°36'0 0.0
2015-Jul-26 06:33N 39°16' W 076°36'0 0.0
2015-Jul-26 05:28N 39°16' W 076°36'0 0.0
2015-Jul-26 04:28N 39°16' W 076°36'0 0.0
2015-Jul-26 03:29N 39°16' W 076°36'0 0.0
2015-Jul-26 02:30N 39°16' W 076°36'0 0.0
2015-Jul-26 01:33N 39°16' W 076°36'0 0.0
2015-Jul-26 00:31N 39°16' W 076°36'0 0.0
2015-Jul-25 23:32N 39°16' W 076°36'0 0.0
2015-Jul-25 22:29N 39°16' W 076°36'0 0.0
2015-Jul-25 21:33N 39°16' W 076°36'0 0.0
2015-Jul-25 20:34N 39°16' W 076°36'0 0.0
2015-Jul-25 19:28N 39°16' W 076°36'0 0.0
2015-Jul-25 18:29N 39°16' W 076°36'0 0.0
2015-Jul-25 17:24N 39°16' W 076°36'0 0.0
2015-Jul-25 16:30N 39°16' W 076°36'0 0.0
2015-Jul-25 15:31N 39°16' W 076°36'0 0.0
2015-Jul-25 14:32N 39°16' W 076°36'0 0.0
2015-Jul-25 13:32N 39°16' W 076°36'0 0.0
2015-Jul-25 12:33N 39°16' W 076°36'0 0.0
2015-Jul-25 11:28N 39°16' W 076°36'0 0.0
2015-Jul-25 10:28N 39°16' W 076°36'0 0.0
2015-Jul-25 09:29N 39°16' W 076°36'0 0.0
2015-Jul-25 08:30N 39°16' W 076°36'0 0.0
2015-Jul-25 07:33N 39°16' W 076°36'0 0.0
2015-Jul-25 06:31N 39°16' W 076°36'0 0.0
2015-Jul-25 05:20N 39°16' W 076°36'0 0.0
2015-Jul-25 04:26N 39°16' W 076°36'0 0.0
2015-Jul-25 03:15N 39°16' W 076°36'0 0.0
2015-Jul-25 02:28N 39°16' W 076°36'0 0.0
2015-Jul-25 01:28N 39°16' W 076°36'0 0.0
2015-Jul-25 00:29N 39°16' W 076°36'0 0.0
2015-Jul-24 23:30N 39°16' W 076°36'0 0.0
2015-Jul-24 22:30N 39°16' W 076°36'0 0.0
2015-Jul-24 20:08N 39°16' W 076°36'0 0.0
2015-Jul-24 19:26N 39°16' W 076°36'0 0.0
2015-Jul-24 16:31N 39°16' W 076°36'0 0.0
2015-Jul-24 14:03N 39°16' W 076°36'0 0.0
2015-Jul-24 13:33N 39°16' W 076°36'0 0.0
2015-Jul-24 12:10N 39°16' W 076°36'0 0.0
2015-Jul-24 11:32N 39°16' W 076°36'0 0.0
2015-Jul-24 10:29N 39°16' W 076°36'0 0.0
2015-Jul-24 09:30N 39°16' W 076°36'0 0.0
2015-Jul-24 08:31N 39°16' W 076°36'0 0.0
2015-Jul-24 07:31N 39°16' W 076°36'0 0.0
2015-Jul-24 06:32N 39°16' W 076°36'0 0.0
2015-Jul-24 05:33N 39°16' W 076°36'0 0.0
2015-Jul-24 04:33N 39°16' W 076°36'0 0.0
2015-Jul-24 03:28N 39°16' W 076°36'0 0.0
2015-Jul-24 02:29N 39°16' W 076°36'0 0.0
2015-Jul-24 01:29N 39°16' W 076°36'0 0.0
2015-Jul-24 00:21N 39°16' W 076°36'0 0.0
2015-Jul-23 23:19N 39°16' W 076°36'0 0.0
2015-Jul-23 22:25N 39°16' W 076°36'0 0.0
2015-Jul-23 21:26N 39°16' W 076°36'0 0.0
2015-Jul-23 20:33N 39°16' W 076°36'0 0.0
2015-Jul-23 18:27N 39°16' W 076°36'0 0.0
2015-Jul-23 17:16N 39°16' W 076°36'1 1.8
2015-Jul-23 16:33N 39°16' W 076°34'5 5.2
2015-Jul-23 15:33N 39°12' W 076°30'16 8.1
2015-Jul-23 13:33N 39°20' W 076°12'9 9.4
2015-Jul-23 12:33N 39°25' W 076°02'10 9.7
2015-Jul-23 11:33N 39°31' W 075°52'9 9.3
2015-Jul-23 10:34N 39°33' W 075°40'6 6.0
2015-Jul-23 09:33N 39°30' W 075°33'9 8.8
2015-Jul-23 08:33N 39°22' W 075°28'9 9.0
2015-Jul-23 07:33N 39°15' W 075°21'4 4.1
2015-Jul-23 06:28N 39°11' W 075°24'0 0.0
2015-Jul-23 05:32N 39°11' W 075°24'0 0.0
2015-Jul-23 04:32N 39°11' W 075°24'0 0.0
2015-Jul-23 03:33N 39°11' W 075°24'0 0.0
2015-Jul-23 02:31N 39°11' W 075°24'0 0.0
2015-Jul-23 01:31N 39°11' W 075°24'0 0.0
2015-Jul-23 00:32N 39°11' W 075°24'0 0.0
2015-Jul-22 23:33N 39°11' W 075°24'0 0.0
2015-Jul-22 22:33N 39°11' W 075°24'0 0.0
2015-Jul-22 21:28N 39°11' W 075°24'0 0.0
2015-Jul-22 20:32N 39°11' W 075°24'0 0.0
2015-Jul-22 19:32N 39°11' W 075°24'0 0.0
2015-Jul-22 18:33N 39°11' W 075°24'1 0.8
2015-Jul-22 17:34N 39°11' W 075°23'4 4.1
2015-Jul-22 16:33N 39°15' W 075°20'3 3.2
2015-Jul-22 15:34N 39°17' W 075°22'7 6.5
2015-Jul-22 14:33N 39°22' W 075°28'9 9.2
2015-Jul-22 13:33N 39°30' W 075°33'5 5.4
2015-Jul-22 12:34N 39°33' W 075°39'7 7.1
2015-Jul-22 11:33N 39°32' W 075°49'6 6.3
2015-Jul-22 10:34N 39°29' W 075°56'7 6.7
2015-Jul-22 09:34N 39°25' W 076°02'7 7.0
2015-Jul-22 08:33N 39°21' W 076°10'7 6.7
2015-Jul-22 07:27N 39°16' W 076°17'7 6.7
2015-Jul-22 06:28N 39°12' W 076°24'6 6.0
2015-Jul-22 05:33N 39°12' W 076°31'4 3.9
2015-Jul-22 04:33N 39°15' W 076°33'1 0.8
2015-Jul-22 03:20N 39°15' W 076°34'1 1.3
2015-Jul-22 02:31N 39°15' W 076°33'0 0.0
2015-Jul-22 01:32N 39°15' W 076°33'0 0.0
2015-Jul-22 00:30N 39°15' W 076°33'0 0.0
2015-Jul-21 23:33N 39°15' W 076°33'1 0.5
2015-Jul-21 21:18N 39°15' W 076°34'1 0.9
2015-Jul-21 20:07N 39°15' W 076°33'1 0.3
2015-Jul-21 16:33N 39°15' W 076°34'0 0.1
2015-Jul-21 13:33N 39°15' W 076°34'0 0.1
2015-Jul-21 11:05N 39°15' W 076°34'0 0.0
2015-Jul-21 10:33N 39°15' W 076°34'  
Track history (hours):
 
Tides and Currents Weather Stations Pressure Air Temp Water Temp Dewpoint Dewpoint Depression Visibility Wind Speed Wind Dir Waves Ship Positions

Roanoke

Owner: Vane Line Bunkering, Baltimore, MD. More information available from US FCC via Universal Licensing System and Coast Guard Vessel Documentation Center.

Last reported at 2015-Jul-31 10:32 UTC. Time now 2015-Jul-31 11:25 UTC.
Position N 39°15' W 076°34'.

Length 32 m; draft 13 m.

Type: Towing. MMSI: 367314510.

Date/timePositionNaut miles runAvg speedWind from/ knotsBaromVisibWave heightAir tempDewpointWater temp
2015-Jul-31 10:32N 39°15' W 076°34'4 3.6
2015-Jul-31 09:33N 39°12' W 076°31'7 7.4
2015-Jul-31 08:33N 39°13' W 076°21'8 8.3
2015-Jul-31 07:33N 39°19' W 076°13'9 8.9
2015-Jul-31 06:33N 39°24' W 076°04'10 9.9
2015-Jul-31 05:33N 39°30' W 075°54'9 9.0
2015-Jul-31 04:33N 39°33' W 075°43'8 7.8
2015-Jul-31 03:33N 39°32' W 075°33'9 9.2
2015-Jul-31 02:33N 39°23' W 075°29'1110.8
2015-Jul-31 01:33N 39°15' W 075°20'5 4.7
2015-Jul-31 00:33N 39°11' W 075°24'0 0.0
2015-Jul-30 23:33N 39°11' W 075°24'0 0.0
2015-Jul-30 22:31N 39°11' W 075°24'0 0.0
2015-Jul-30 21:32N 39°11' W 075°24'0 0.0
2015-Jul-30 20:32N 39°11' W 075°24'0 0.0
2015-Jul-30 19:33N 39°11' W 075°24'0 0.0
2015-Jul-30 18:28N 39°11' W 075°24'0 0.0
2015-Jul-30 17:31N 39°11' W 075°24'0 0.0
2015-Jul-30 16:29N 39°11' W 075°24'0 0.0
2015-Jul-30 15:30N 39°11' W 075°24'0 0.0
2015-Jul-30 14:30N 39°11' W 075°24'0 0.0
2015-Jul-30 13:31N 39°11' W 075°24'1 0.7
2015-Jul-30 12:33N 39°11' W 075°23'5 4.9
2015-Jul-30 11:33N 39°16' W 075°21'6 5.9
2015-Jul-30 10:33N 39°20' W 075°26'6 5.8
2015-Jul-30 09:33N 39°25' W 075°31'6 5.9
2015-Jul-30 08:33N 39°30' W 075°33'4 4.0
2015-Jul-30 07:33N 39°33' W 075°37'5 4.8
2015-Jul-30 06:33N 39°33' W 075°43'5 4.9
2015-Jul-30 05:33N 39°32' W 075°49'5 4.6
2015-Jul-30 04:33N 39°30' W 075°55'5 5.0
2015-Jul-30 03:33N 39°27' W 075°60'5 5.5
2015-Jul-30 02:33N 39°23' W 076°05'6 5.8
2015-Jul-30 01:33N 39°20' W 076°11'6 5.6
2015-Jul-30 00:28N 39°16' W 076°17'5 6.0
2015-Jul-29 23:33N 39°13' W 076°22'6 5.6
2015-Jul-29 22:33N 39°12' W 076°29'5 5.0
2015-Jul-29 21:33N 39°15' W 076°34'0 0.0
2015-Jul-29 20:31N 39°15' W 076°34'0 0.0
2015-Jul-29 19:31N 39°15' W 076°34'0 0.0
2015-Jul-29 18:12N 39°15' W 076°34'0 0.0
2015-Jul-29 17:12N 39°15' W 076°34'0 0.0
2015-Jul-29 16:33N 39°15' W 076°34'0 0.0
2015-Jul-29 15:25N 39°15' W 076°34'0 0.0
2015-Jul-29 14:31N 39°15' W 076°34'0 0.0
2015-Jul-29 12:27N 39°15' W 076°34'0 0.4
2015-Jul-29 11:33N 39°15' W 076°34'7 6.3
2015-Jul-29 10:25N 39°11' W 076°27'5 5.7
2015-Jul-29 09:33N 39°13' W 076°21'5 4.9
2015-Jul-29 08:31N 39°16' W 076°16'5 4.9
2015-Jul-29 07:33N 39°20' W 076°12'6 6.0
2015-Jul-29 06:33N 39°23' W 076°05'7 6.7
2015-Jul-29 05:33N 39°28' W 075°58'6 6.4
2015-Jul-29 04:33N 39°23' W 076°05'8 7.5
2015-Jul-29 03:33N 39°19' W 076°13'7 7.2
2015-Jul-29 02:32N 39°14' W 076°20'7 7.4
2015-Jul-29 01:33N 39°11' W 076°28'5 4.9
2015-Jul-29 00:32N 39°14' W 076°34'0 0.0
2015-Jul-28 23:33N 39°14' W 076°34'0 0.0
2015-Jul-28 22:31N 39°14' W 076°34'1 1.0
2015-Jul-28 21:33N 39°14' W 076°34'1 0.8
2015-Jul-28 20:33N 39°15' W 076°34'2 1.9
2015-Jul-28 19:33N 39°16' W 076°36'0 0.0
2015-Jul-28 18:31N 39°16' W 076°36'0 0.0
2015-Jul-28 17:30N 39°16' W 076°36'0 0.0
2015-Jul-28 16:33N 39°16' W 076°36'0 0.0
2015-Jul-28 15:31N 39°16' W 076°36'0 0.0
2015-Jul-28 14:31N 39°16' W 076°36'0 0.0
2015-Jul-28 13:32N 39°16' W 076°36'0 0.0
2015-Jul-28 12:33N 39°16' W 076°36'0 0.0
2015-Jul-28 11:27N 39°16' W 076°36'0 0.0
2015-Jul-28 10:28N 39°16' W 076°36'0 0.0
2015-Jul-28 09:29N 39°16' W 076°36'0 0.0
2015-Jul-28 08:29N 39°16' W 076°36'0 0.0
2015-Jul-28 07:30N 39°16' W 076°36'0 0.0
2015-Jul-28 06:31N 39°16' W 076°36'0 0.0
2015-Jul-28 05:31N 39°16' W 076°36'0 0.0
2015-Jul-28 04:32N 39°16' W 076°36'0 0.0
2015-Jul-28 03:33N 39°16' W 076°36'0 0.0
2015-Jul-28 02:33N 39°16' W 076°36'0 0.0
2015-Jul-28 01:28N 39°16' W 076°36'0 0.0
2015-Jul-28 00:29N 39°16' W 076°36'0 0.0
2015-Jul-27 23:23N 39°16' W 076°36'0 0.0
2015-Jul-27 20:31N 39°16' W 076°36'0 0.0
2015-Jul-27 19:26N 39°16' W 076°36'0 0.0
2015-Jul-27 15:29N 39°16' W 076°36'0 0.0
2015-Jul-27 14:12N 39°16' W 076°36'0 0.0
2015-Jul-27 11:25N 39°16' W 076°36'0 0.0
2015-Jul-27 10:26N 39°16' W 076°36'0 0.0
2015-Jul-27 01:32N 39°16' W 076°36'0 0.0
2015-Jul-26 16:29N 39°16' W 076°36'0 0.0
2015-Jul-26 15:30N 39°16' W 076°36'0 0.0
2015-Jul-26 14:31N 39°16' W 076°36'0 0.0
2015-Jul-26 13:28N 39°16' W 076°36'0 0.0
2015-Jul-26 12:29N 39°16' W 076°36'0 0.0
2015-Jul-26 11:30N 39°16' W 076°36'0 0.0
2015-Jul-26 10:12N 39°16' W 076°36'0 0.0
2015-Jul-26 09:31N 39°16' W 076°36'0 0.0
2015-Jul-26 08:20N 39°16' W 076°36'0 0.0
2015-Jul-26 07:32N 39°16' W 076°36'0 0.0
2015-Jul-26 06:33N 39°16' W 076°36'0 0.0
2015-Jul-26 05:28N 39°16' W 076°36'0 0.0
2015-Jul-26 04:28N 39°16' W 076°36'0 0.0
2015-Jul-26 03:29N 39°16' W 076°36'0 0.0
2015-Jul-26 02:30N 39°16' W 076°36'0 0.0
2015-Jul-26 01:33N 39°16' W 076°36'0 0.0
2015-Jul-26 00:31N 39°16' W 076°36'0 0.0
2015-Jul-25 23:32N 39°16' W 076°36'0 0.0
2015-Jul-25 22:29N 39°16' W 076°36'0 0.0
2015-Jul-25 21:33N 39°16' W 076°36'0 0.0
2015-Jul-25 20:34N 39°16' W 076°36'0 0.0
2015-Jul-25 19:28N 39°16' W 076°36'0 0.0
2015-Jul-25 18:29N 39°16' W 076°36'0 0.0
2015-Jul-25 17:24N 39°16' W 076°36'0 0.0
2015-Jul-25 16:30N 39°16' W 076°36'0 0.0
2015-Jul-25 15:31N 39°16' W 076°36'0 0.0
2015-Jul-25 14:32N 39°16' W 076°36'0 0.0
2015-Jul-25 13:32N 39°16' W 076°36'0 0.0
2015-Jul-25 12:33N 39°16' W 076°36'0 0.0
2015-Jul-25 11:28N 39°16' W 076°36'0 0.0
2015-Jul-25 10:28N 39°16' W 076°36'0 0.0
2015-Jul-25 09:29N 39°16' W 076°36'0 0.0
2015-Jul-25 08:30N 39°16' W 076°36'0 0.0
2015-Jul-25 07:33N 39°16' W 076°36'0 0.0
2015-Jul-25 06:31N 39°16' W 076°36'0 0.0
2015-Jul-25 05:20N 39°16' W 076°36'0 0.0
2015-Jul-25 04:26N 39°16' W 076°36'0 0.0
2015-Jul-25 03:15N 39°16' W 076°36'0 0.0
2015-Jul-25 02:28N 39°16' W 076°36'0 0.0
2015-Jul-25 01:28N 39°16' W 076°36'0 0.0
2015-Jul-25 00:29N 39°16' W 076°36'0 0.0
2015-Jul-24 23:30N 39°16' W 076°36'0 0.0
2015-Jul-24 22:30N 39°16' W 076°36'0 0.0
2015-Jul-24 20:08N 39°16' W 076°36'0 0.0
2015-Jul-24 19:26N 39°16' W 076°36'0 0.0
2015-Jul-24 16:31N 39°16' W 076°36'0 0.0
2015-Jul-24 14:03N 39°16' W 076°36'0 0.0
2015-Jul-24 13:33N 39°16' W 076°36'0 0.0
2015-Jul-24 12:10N 39°16' W 076°36'0 0.0
2015-Jul-24 11:32N 39°16' W 076°36'0 0.0
2015-Jul-24 10:29N 39°16' W 076°36'0 0.0
2015-Jul-24 09:30N 39°16' W 076°36'0 0.0
2015-Jul-24 08:31N 39°16' W 076°36'0 0.0
2015-Jul-24 07:31N 39°16' W 076°36'0 0.0
2015-Jul-24 06:32N 39°16' W 076°36'0 0.0
2015-Jul-24 05:33N 39°16' W 076°36'0 0.0
2015-Jul-24 04:33N 39°16' W 076°36'0 0.0
2015-Jul-24 03:28N 39°16' W 076°36'0 0.0
2015-Jul-24 02:29N 39°16' W 076°36'0 0.0
2015-Jul-24 01:29N 39°16' W 076°36'0 0.0
2015-Jul-24 00:21N 39°16' W 076°36'0 0.0
2015-Jul-23 23:19N 39°16' W 076°36'0 0.0
2015-Jul-23 22:25N 39°16' W 076°36'0 0.0
2015-Jul-23 21:26N 39°16' W 076°36'0 0.0
2015-Jul-23 20:33N 39°16' W 076°36'0 0.0
2015-Jul-23 18:27N 39°16' W 076°36'0 0.0
2015-Jul-23 17:16N 39°16' W 076°36'1 1.8
2015-Jul-23 16:33N 39°16' W 076°34'5 5.2
2015-Jul-23 15:33N 39°12' W 076°30'16 8.1
2015-Jul-23 13:33N 39°20' W 076°12'9 9.4
2015-Jul-23 12:33N 39°25' W 076°02'10 9.7
2015-Jul-23 11:33N 39°31' W 075°52'9 9.3
2015-Jul-23 10:34N 39°33' W 075°40'6 6.0
2015-Jul-23 09:33N 39°30' W 075°33'9 8.8
2015-Jul-23 08:33N 39°22' W 075°28'9 9.0
2015-Jul-23 07:33N 39°15' W 075°21'4 4.1
2015-Jul-23 06:28N 39°11' W 075°24'0 0.0
2015-Jul-23 05:32N 39°11' W 075°24'0 0.0
2015-Jul-23 04:32N 39°11' W 075°24'0 0.0
2015-Jul-23 03:33N 39°11' W 075°24'0 0.0
2015-Jul-23 02:31N 39°11' W 075°24'0 0.0
2015-Jul-23 01:31N 39°11' W 075°24'0 0.0
2015-Jul-23 00:32N 39°11' W 075°24'0 0.0
2015-Jul-22 23:33N 39°11' W 075°24'0 0.0
2015-Jul-22 22:33N 39°11' W 075°24'0 0.0
2015-Jul-22 21:28N 39°11' W 075°24'0 0.0
2015-Jul-22 20:32N 39°11' W 075°24'0 0.0
2015-Jul-22 19:32N 39°11' W 075°24'0 0.0
2015-Jul-22 18:33N 39°11' W 075°24'1 0.8
2015-Jul-22 17:34N 39°11' W 075°23'4 4.1
2015-Jul-22 16:33N 39°15' W 075°20'3 3.2
2015-Jul-22 15:34N 39°17' W 075°22'7 6.5
2015-Jul-22 14:33N 39°22' W 075°28'9 9.2
2015-Jul-22 13:33N 39°30' W 075°33'5 5.4
2015-Jul-22 12:34N 39°33' W 075°39'7 7.1
2015-Jul-22 11:33N 39°32' W 075°49'6 6.3
2015-Jul-22 10:34N 39°29' W 075°56'7 6.7
2015-Jul-22 09:34N 39°25' W 076°02'7 7.0
2015-Jul-22 08:33N 39°21' W 076°10'7 6.7
2015-Jul-22 07:27N 39°16' W 076°17'7 6.7
2015-Jul-22 06:28N 39°12' W 076°24'6 6.0
2015-Jul-22 05:33N 39°12' W 076°31'4 3.9
2015-Jul-22 04:33N 39°15' W 076°33'1 0.8
2015-Jul-22 03:20N 39°15' W 076°34'1 1.3
2015-Jul-22 02:31N 39°15' W 076°33'0 0.0
2015-Jul-22 01:32N 39°15' W 076°33'0 0.0
2015-Jul-22 00:30N 39°15' W 076°33'0 0.0
2015-Jul-21 23:33N 39°15' W 076°33'1 0.5
2015-Jul-21 21:18N 39°15' W 076°34'1 0.9
2015-Jul-21 20:07N 39°15' W 076°33'1 0.3
2015-Jul-21 16:33N 39°15' W 076°34'0 0.1
2015-Jul-21 13:33N 39°15' W 076°34'0 0.1
2015-Jul-21 11:05N 39°15' W 076°34'0 0.0
2015-Jul-21 10:33N 39°15' W 076°34'  

Dump ship's entire track history